sensor_id;sensor_type;location;lat;lon;timestamp;temperature;humidity
78345;DHT22;67620;51.134;6.548;2024-01-25T00:01:06;8.00;83.70
78345;DHT22;67620;51.134;6.548;2024-01-25T00:03:32;8.00;83.80
78345;DHT22;67620;51.134;6.548;2024-01-25T00:05:57;8.00;83.80
78345;DHT22;67620;51.134;6.548;2024-01-25T00:08:23;8.00;83.80
78345;DHT22;67620;51.134;6.548;2024-01-25T00:10:48;8.10;83.90
78345;DHT22;67620;51.134;6.548;2024-01-25T00:13:14;8.00;83.90
78345;DHT22;67620;51.134;6.548;2024-01-25T00:15:40;8.00;84.10
78345;DHT22;67620;51.134;6.548;2024-01-25T00:18:05;8.00;84.00
78345;DHT22;67620;51.134;6.548;2024-01-25T00:20:31;8.10;83.90
78345;DHT22;67620;51.134;6.548;2024-01-25T00:22:57;8.10;83.60
78345;DHT22;67620;51.134;6.548;2024-01-25T00:25:22;8.10;83.70
78345;DHT22;67620;51.134;6.548;2024-01-25T00:27:48;8.10;83.80
78345;DHT22;67620;51.134;6.548;2024-01-25T00:30:13;8.10;83.80
78345;DHT22;67620;51.134;6.548;2024-01-25T00:32:39;8.10;83.80
78345;DHT22;67620;51.134;6.548;2024-01-25T00:35:05;8.10;83.80
78345;DHT22;67620;51.134;6.548;2024-01-25T00:37:31;8.00;84.00
78345;DHT22;67620;51.134;6.548;2024-01-25T00:39:56;8.00;84.10
78345;DHT22;67620;51.134;6.548;2024-01-25T00:42:22;8.00;84.10
78345;DHT22;67620;51.134;6.548;2024-01-25T00:44:49;8.00;84.10
78345;DHT22;67620;51.134;6.548;2024-01-25T00:47:15;7.90;84.30
78345;DHT22;67620;51.134;6.548;2024-01-25T00:49:41;7.90;84.30
78345;DHT22;67620;51.134;6.548;2024-01-25T00:52:07;7.90;84.30
78345;DHT22;67620;51.134;6.548;2024-01-25T00:54:32;7.90;84.30
78345;DHT22;67620;51.134;6.548;2024-01-25T00:56:58;7.80;84.40
78345;DHT22;67620;51.134;6.548;2024-01-25T00:59:24;7.80;84.40
78345;DHT22;67620;51.134;6.548;2024-01-25T01:01:52;7.80;84.30
78345;DHT22;67620;51.134;6.548;2024-01-25T01:04:18;7.70;84.50
78345;DHT22;67620;51.134;6.548;2024-01-25T01:06:44;7.70;84.70
78345;DHT22;67620;51.134;6.548;2024-01-25T01:09:10;7.70;84.80
78345;DHT22;67620;51.134;6.548;2024-01-25T01:11:38;7.70;84.70
78345;DHT22;67620;51.134;6.548;2024-01-25T01:14:03;7.70;84.70
78345;DHT22;67620;51.134;6.548;2024-01-25T01:16:29;7.60;84.90
78345;DHT22;67620;51.134;6.548;2024-01-25T01:18:58;7.60;84.80
78345;DHT22;67620;51.134;6.548;2024-01-25T01:21:30;7.60;85.10
78345;DHT22;67620;51.134;6.548;2024-01-25T01:23:55;7.60;84.80
78345;DHT22;67620;51.134;6.548;2024-01-25T01:26:21;7.60;85.00
78345;DHT22;67620;51.134;6.548;2024-01-25T01:28:47;7.50;85.00
78345;DHT22;67620;51.134;6.548;2024-01-25T01:31:12;7.50;85.40
78345;DHT22;67620;51.134;6.548;2024-01-25T01:33:38;7.50;85.30
78345;DHT22;67620;51.134;6.548;2024-01-25T01:36:03;7.50;85.40
78345;DHT22;67620;51.134;6.548;2024-01-25T01:38:29;7.50;85.20
78345;DHT22;67620;51.134;6.548;2024-01-25T01:40:54;7.40;85.30
78345;DHT22;67620;51.134;6.548;2024-01-25T01:43:20;7.40;85.50
78345;DHT22;67620;51.134;6.548;2024-01-25T01:45:46;7.40;85.50
78345;DHT22;67620;51.134;6.548;2024-01-25T01:48:12;7.40;85.50
78345;DHT22;67620;51.134;6.548;2024-01-25T01:50:38;7.30;85.60
78345;DHT22;67620;51.134;6.548;2024-01-25T01:53:04;7.30;85.60
78345;DHT22;67620;51.134;6.548;2024-01-25T01:55:30;7.20;85.70
78345;DHT22;67620;51.134;6.548;2024-01-25T01:57:56;7.20;85.90
78345;DHT22;67620;51.134;6.548;2024-01-25T02:00:21;7.20;85.90
78345;DHT22;67620;51.134;6.548;2024-01-25T02:02:47;7.20;85.80
78345;DHT22;67620;51.134;6.548;2024-01-25T02:05:13;7.10;86.00
78345;DHT22;67620;51.134;6.548;2024-01-25T02:07:39;7.00;86.20
78345;DHT22;67620;51.134;6.548;2024-01-25T02:10:06;7.00;86.10
78345;DHT22;67620;51.134;6.548;2024-01-25T02:12:32;7.00;86.10
78345;DHT22;67620;51.134;6.548;2024-01-25T02:14:57;6.90;86.30
78345;DHT22;67620;51.134;6.548;2024-01-25T02:17:23;6.90;86.20
78345;DHT22;67620;51.134;6.548;2024-01-25T02:19:48;6.90;86.50
78345;DHT22;67620;51.134;6.548;2024-01-25T02:22:19;6.90;86.00
78345;DHT22;67620;51.134;6.548;2024-01-25T02:24:44;6.80;86.40
78345;DHT22;67620;51.134;6.548;2024-01-25T02:27:10;6.70;86.60
78345;DHT22;67620;51.134;6.548;2024-01-25T02:29:36;6.70;87.00
78345;DHT22;67620;51.134;6.548;2024-01-25T02:32:02;6.80;86.80
78345;DHT22;67620;51.134;6.548;2024-01-25T02:34:28;6.80;86.60
78345;DHT22;67620;51.134;6.548;2024-01-25T02:36:53;6.80;86.60
78345;DHT22;67620;51.134;6.548;2024-01-25T02:39:19;6.80;86.80
78345;DHT22;67620;51.134;6.548;2024-01-25T02:41:44;6.70;86.60
78345;DHT22;67620;51.134;6.548;2024-01-25T02:44:10;6.70;86.70
78345;DHT22;67620;51.134;6.548;2024-01-25T02:46:36;6.60;86.60
78345;DHT22;67620;51.134;6.548;2024-01-25T02:49:02;6.60;87.00
78345;DHT22;67620;51.134;6.548;2024-01-25T02:51:27;6.60;86.80
78345;DHT22;67620;51.134;6.548;2024-01-25T02:53:53;6.60;86.80
78345;DHT22;67620;51.134;6.548;2024-01-25T02:56:18;6.60;86.90
78345;DHT22;67620;51.134;6.548;2024-01-25T02:58:44;6.70;87.00
78345;DHT22;67620;51.134;6.548;2024-01-25T03:01:10;6.60;87.30
78345;DHT22;67620;51.134;6.548;2024-01-25T03:03:35;6.60;87.50
78345;DHT22;67620;51.134;6.548;2024-01-25T03:06:01;6.60;87.60
78345;DHT22;67620;51.134;6.548;2024-01-25T03:08:27;6.60;87.70
78345;DHT22;67620;51.134;6.548;2024-01-25T03:10:52;6.60;87.60
78345;DHT22;67620;51.134;6.548;2024-01-25T03:13:18;6.50;87.60
78345;DHT22;67620;51.134;6.548;2024-01-25T03:15:43;6.50;87.40
78345;DHT22;67620;51.134;6.548;2024-01-25T03:18:09;6.50;87.00
78345;DHT22;67620;51.134;6.548;2024-01-25T03:20:35;6.40;87.30
78345;DHT22;67620;51.134;6.548;2024-01-25T03:23:00;6.40;87.50
78345;DHT22;67620;51.134;6.548;2024-01-25T03:25:26;6.30;87.60
78345;DHT22;67620;51.134;6.548;2024-01-25T03:27:51;6.30;87.60
78345;DHT22;67620;51.134;6.548;2024-01-25T03:30:17;6.30;87.80
78345;DHT22;67620;51.134;6.548;2024-01-25T03:32:42;6.20;87.80
78345;DHT22;67620;51.134;6.548;2024-01-25T03:35:08;6.10;88.00
78345;DHT22;67620;51.134;6.548;2024-01-25T03:37:33;6.00;88.90
78345;DHT22;67620;51.134;6.548;2024-01-25T03:39:59;6.20;89.00
78345;DHT22;67620;51.134;6.548;2024-01-25T03:42:25;6.20;88.90
78345;DHT22;67620;51.134;6.548;2024-01-25T03:44:51;6.20;89.10
78345;DHT22;67620;51.134;6.548;2024-01-25T03:47:17;6.30;89.40
78345;DHT22;67620;51.134;6.548;2024-01-25T03:49:42;6.30;89.10
78345;DHT22;67620;51.134;6.548;2024-01-25T03:52:08;6.30;89.20
78345;DHT22;67620;51.134;6.548;2024-01-25T03:54:33;6.30;89.20
78345;DHT22;67620;51.134;6.548;2024-01-25T03:56:59;6.20;89.10
78345;DHT22;67620;51.134;6.548;2024-01-25T03:59:24;6.20;89.30
78345;DHT22;67620;51.134;6.548;2024-01-25T04:01:50;6.30;89.10
78345;DHT22;67620;51.134;6.548;2024-01-25T04:04:15;6.30;89.10
78345;DHT22;67620;51.134;6.548;2024-01-25T04:06:42;6.20;89.10
78345;DHT22;67620;51.134;6.548;2024-01-25T04:09:11;6.10;89.00
78345;DHT22;67620;51.134;6.548;2024-01-25T04:11:37;6.10;89.10
78345;DHT22;67620;51.134;6.548;2024-01-25T04:14:03;6.10;88.80
78345;DHT22;67620;51.134;6.548;2024-01-25T04:16:29;6.10;88.80
78345;DHT22;67620;51.134;6.548;2024-01-25T04:18:54;6.00;88.70
78345;DHT22;67620;51.134;6.548;2024-01-25T04:21:20;6.10;89.10
78345;DHT22;67620;51.134;6.548;2024-01-25T04:23:45;6.10;89.00
78345;DHT22;67620;51.134;6.548;2024-01-25T04:26:11;6.10;88.90
78345;DHT22;67620;51.134;6.548;2024-01-25T04:28:36;6.00;89.10
78345;DHT22;67620;51.134;6.548;2024-01-25T04:31:02;6.10;88.90
78345;DHT22;67620;51.134;6.548;2024-01-25T04:33:31;5.90;88.50
78345;DHT22;67620;51.134;6.548;2024-01-25T04:35:56;5.80;88.80
78345;DHT22;67620;51.134;6.548;2024-01-25T04:38:22;5.80;88.70
78345;DHT22;67620;51.134;6.548;2024-01-25T04:40:47;5.80;88.90
78345;DHT22;67620;51.134;6.548;2024-01-25T04:43:13;5.70;88.90
78345;DHT22;67620;51.134;6.548;2024-01-25T04:45:39;5.70;88.30
78345;DHT22;67620;51.134;6.548;2024-01-25T04:48:05;5.70;87.90
78345;DHT22;67620;51.134;6.548;2024-01-25T04:50:31;5.50;88.10
78345;DHT22;67620;51.134;6.548;2024-01-25T04:52:56;5.40;88.00
78345;DHT22;67620;51.134;6.548;2024-01-25T04:55:22;5.40;88.30
78345;DHT22;67620;51.134;6.548;2024-01-25T04:57:47;5.30;88.50
78345;DHT22;67620;51.134;6.548;2024-01-25T05:00:15;5.30;87.90
78345;DHT22;67620;51.134;6.548;2024-01-25T05:02:42;5.20;88.20
78345;DHT22;67620;51.134;6.548;2024-01-25T05:05:07;5.20;88.30
78345;DHT22;67620;51.134;6.548;2024-01-25T05:07:33;5.20;88.60
78345;DHT22;67620;51.134;6.548;2024-01-25T05:09:58;5.20;88.60
78345;DHT22;67620;51.134;6.548;2024-01-25T05:12:24;5.10;88.40
78345;DHT22;67620;51.134;6.548;2024-01-25T05:14:49;5.10;88.60
78345;DHT22;67620;51.134;6.548;2024-01-25T05:17:15;5.10;88.40
78345;DHT22;67620;51.134;6.548;2024-01-25T05:19:40;5.10;88.30
78345;DHT22;67620;51.134;6.548;2024-01-25T05:22:06;5.00;88.20
78345;DHT22;67620;51.134;6.548;2024-01-25T05:24:33;5.00;88.10
78345;DHT22;67620;51.134;6.548;2024-01-25T05:26:59;4.90;88.50
78345;DHT22;67620;51.134;6.548;2024-01-25T05:29:24;4.80;88.20
78345;DHT22;67620;51.134;6.548;2024-01-25T05:31:50;4.80;88.60
78345;DHT22;67620;51.134;6.548;2024-01-25T05:34:15;4.90;89.00
78345;DHT22;67620;51.134;6.548;2024-01-25T05:36:41;4.90;88.60
78345;DHT22;67620;51.134;6.548;2024-01-25T05:39:09;4.90;88.40
78345;DHT22;67620;51.134;6.548;2024-01-25T05:41:35;4.90;88.10
78345;DHT22;67620;51.134;6.548;2024-01-25T05:44:00;4.90;88.20
78345;DHT22;67620;51.134;6.548;2024-01-25T05:46:26;4.90;87.90
78345;DHT22;67620;51.134;6.548;2024-01-25T05:48:51;4.90;88.20
78345;DHT22;67620;51.134;6.548;2024-01-25T05:51:17;4.90;88.60
78345;DHT22;67620;51.134;6.548;2024-01-25T05:53:43;4.90;88.70
78345;DHT22;67620;51.134;6.548;2024-01-25T05:56:08;4.80;88.80
78345;DHT22;67620;51.134;6.548;2024-01-25T05:58:34;4.80;88.60
78345;DHT22;67620;51.134;6.548;2024-01-25T06:01:00;4.80;88.80
78345;DHT22;67620;51.134;6.548;2024-01-25T06:03:25;4.80;88.60
78345;DHT22;67620;51.134;6.548;2024-01-25T06:05:51;4.70;88.40
78345;DHT22;67620;51.134;6.548;2024-01-25T06:08:16;4.70;88.70
78345;DHT22;67620;51.134;6.548;2024-01-25T06:10:42;4.70;88.20
78345;DHT22;67620;51.134;6.548;2024-01-25T06:13:08;4.70;88.60
78345;DHT22;67620;51.134;6.548;2024-01-25T06:15:33;4.70;88.30
78345;DHT22;67620;51.134;6.548;2024-01-25T06:17:59;4.70;88.90
78345;DHT22;67620;51.134;6.548;2024-01-25T06:20:24;4.60;88.90
78345;DHT22;67620;51.134;6.548;2024-01-25T06:22:50;4.60;89.10
78345;DHT22;67620;51.134;6.548;2024-01-25T06:25:15;4.60;89.20
78345;DHT22;67620;51.134;6.548;2024-01-25T06:27:41;4.50;89.40
78345;DHT22;67620;51.134;6.548;2024-01-25T06:30:07;4.60;89.50
78345;DHT22;67620;51.134;6.548;2024-01-25T06:32:33;4.50;88.70
78345;DHT22;67620;51.134;6.548;2024-01-25T06:34:58;4.50;89.00
78345;DHT22;67620;51.134;6.548;2024-01-25T06:37:24;4.50;88.80
78345;DHT22;67620;51.134;6.548;2024-01-25T06:39:49;4.50;88.80
78345;DHT22;67620;51.134;6.548;2024-01-25T06:42:15;4.40;88.20
78345;DHT22;67620;51.134;6.548;2024-01-25T06:44:40;4.30;87.70
78345;DHT22;67620;51.134;6.548;2024-01-25T06:47:06;4.40;88.80
78345;DHT22;67620;51.134;6.548;2024-01-25T06:49:31;4.50;89.30
78345;DHT22;67620;51.134;6.548;2024-01-25T06:51:57;4.50;89.30
78345;DHT22;67620;51.134;6.548;2024-01-25T06:54:22;4.50;89.20
78345;DHT22;67620;51.134;6.548;2024-01-25T06:56:48;4.50;88.80
78345;DHT22;67620;51.134;6.548;2024-01-25T06:59:16;4.60;89.10
78345;DHT22;67620;51.134;6.548;2024-01-25T07:01:42;4.60;89.30
78345;DHT22;67620;51.134;6.548;2024-01-25T07:04:07;4.60;89.20
78345;DHT22;67620;51.134;6.548;2024-01-25T07:06:33;4.60;89.20
78345;DHT22;67620;51.134;6.548;2024-01-25T07:08:59;4.50;89.60
78345;DHT22;67620;51.134;6.548;2024-01-25T07:11:24;4.40;89.80
78345;DHT22;67620;51.134;6.548;2024-01-25T07:13:50;4.40;90.10
78345;DHT22;67620;51.134;6.548;2024-01-25T07:16:16;4.40;90.10
78345;DHT22;67620;51.134;6.548;2024-01-25T07:18:42;4.50;89.70
78345;DHT22;67620;51.134;6.548;2024-01-25T07:21:07;4.50;89.70
78345;DHT22;67620;51.134;6.548;2024-01-25T07:23:33;4.50;89.20
78345;DHT22;67620;51.134;6.548;2024-01-25T07:25:59;4.50;89.40
78345;DHT22;67620;51.134;6.548;2024-01-25T07:28:26;4.40;89.60
78345;DHT22;67620;51.134;6.548;2024-01-25T07:30:51;4.40;89.60
78345;DHT22;67620;51.134;6.548;2024-01-25T07:33:17;4.40;90.00
78345;DHT22;67620;51.134;6.548;2024-01-25T07:35:42;4.50;90.30
78345;DHT22;67620;51.134;6.548;2024-01-25T07:38:17;4.60;90.60
78345;DHT22;67620;51.134;6.548;2024-01-25T07:40:43;4.60;90.70
78345;DHT22;67620;51.134;6.548;2024-01-25T07:43:09;4.60;90.90
78345;DHT22;67620;51.134;6.548;2024-01-25T07:45:34;4.70;91.10
78345;DHT22;67620;51.134;6.548;2024-01-25T07:48:00;4.80;90.70
78345;DHT22;67620;51.134;6.548;2024-01-25T07:50:25;4.80;90.80
78345;DHT22;67620;51.134;6.548;2024-01-25T07:52:51;4.80;90.50
78345;DHT22;67620;51.134;6.548;2024-01-25T07:55:17;4.80;90.50
78345;DHT22;67620;51.134;6.548;2024-01-25T07:57:43;4.90;90.80
78345;DHT22;67620;51.134;6.548;2024-01-25T08:00:08;5.00;90.70
78345;DHT22;67620;51.134;6.548;2024-01-25T08:02:37;5.10;90.60
78345;DHT22;67620;51.134;6.548;2024-01-25T08:05:07;5.20;90.40
78345;DHT22;67620;51.134;6.548;2024-01-25T08:07:32;5.20;90.40
78345;DHT22;67620;51.134;6.548;2024-01-25T08:09:58;5.30;90.40
78345;DHT22;67620;51.134;6.548;2024-01-25T08:12:24;5.30;90.50
78345;DHT22;67620;51.134;6.548;2024-01-25T08:14:50;5.50;90.10
78345;DHT22;67620;51.134;6.548;2024-01-25T08:17:16;5.50;90.20
78345;DHT22;67620;51.134;6.548;2024-01-25T08:19:41;5.60;90.00
78345;DHT22;67620;51.134;6.548;2024-01-25T08:22:07;5.70;90.10
78345;DHT22;67620;51.134;6.548;2024-01-25T08:24:33;5.70;90.00
78345;DHT22;67620;51.134;6.548;2024-01-25T08:26:58;5.80;90.30
78345;DHT22;67620;51.134;6.548;2024-01-25T08:29:24;5.80;89.90
78345;DHT22;67620;51.134;6.548;2024-01-25T08:31:49;5.80;90.20
78345;DHT22;67620;51.134;6.548;2024-01-25T08:34:15;5.90;90.20
78345;DHT22;67620;51.134;6.548;2024-01-25T08:36:40;5.90;90.00
78345;DHT22;67620;51.134;6.548;2024-01-25T08:39:06;6.00;89.70
78345;DHT22;67620;51.134;6.548;2024-01-25T08:41:34;6.10;89.30
78345;DHT22;67620;51.134;6.548;2024-01-25T08:43:59;6.20;89.00
78345;DHT22;67620;51.134;6.548;2024-01-25T08:46:25;6.30;88.50
78345;DHT22;67620;51.134;6.548;2024-01-25T08:48:50;6.40;88.60
78345;DHT22;67620;51.134;6.548;2024-01-25T08:51:16;6.50;88.40
78345;DHT22;67620;51.134;6.548;2024-01-25T08:53:41;6.50;88.20
78345;DHT22;67620;51.134;6.548;2024-01-25T08:56:07;6.50;88.20
78345;DHT22;67620;51.134;6.548;2024-01-25T08:58:32;6.60;88.30
78345;DHT22;67620;51.134;6.548;2024-01-25T09:00:58;6.60;88.10
78345;DHT22;67620;51.134;6.548;2024-01-25T09:03:23;6.70;88.10
78345;DHT22;67620;51.134;6.548;2024-01-25T09:05:49;6.70;88.20
78345;DHT22;67620;51.134;6.548;2024-01-25T09:08:15;6.80;87.60
78345;DHT22;67620;51.134;6.548;2024-01-25T09:10:41;6.80;87.40
78345;DHT22;67620;51.134;6.548;2024-01-25T09:13:07;6.80;87.50
78345;DHT22;67620;51.134;6.548;2024-01-25T09:15:33;6.90;87.20
78345;DHT22;67620;51.134;6.548;2024-01-25T09:17:59;6.90;87.10
78345;DHT22;67620;51.134;6.548;2024-01-25T09:20:24;7.00;86.80
78345;DHT22;67620;51.134;6.548;2024-01-25T09:22:51;7.10;86.70
78345;DHT22;67620;51.134;6.548;2024-01-25T09:25:16;7.30;86.30
78345;DHT22;67620;51.134;6.548;2024-01-25T09:27:42;7.50;85.50
78345;DHT22;67620;51.134;6.548;2024-01-25T09:30:08;7.80;84.10
78345;DHT22;67620;51.134;6.548;2024-01-25T09:32:34;7.80;83.80
78345;DHT22;67620;51.134;6.548;2024-01-25T09:34:59;7.70;84.10
78345;DHT22;67620;51.134;6.548;2024-01-25T09:37:25;7.70;84.10
78345;DHT22;67620;51.134;6.548;2024-01-25T09:39:50;8.10;83.50
78345;DHT22;67620;51.134;6.548;2024-01-25T09:42:19;8.40;82.50
78345;DHT22;67620;51.134;6.548;2024-01-25T09:44:44;8.60;81.50
78345;DHT22;67620;51.134;6.548;2024-01-25T09:47:10;8.80;80.60
78345;DHT22;67620;51.134;6.548;2024-01-25T09:49:36;8.80;80.40
78345;DHT22;67620;51.134;6.548;2024-01-25T09:52:03;8.80;80.40
78345;DHT22;67620;51.134;6.548;2024-01-25T09:54:35;8.80;80.50
78345;DHT22;67620;51.134;6.548;2024-01-25T09:57:07;9.00;79.90
78345;DHT22;67620;51.134;6.548;2024-01-25T09:59:33;9.10;79.50
78345;DHT22;67620;51.134;6.548;2024-01-25T10:02:01;9.20;79.00
78345;DHT22;67620;51.134;6.548;2024-01-25T10:04:26;9.10;78.50
78345;DHT22;67620;51.134;6.548;2024-01-25T10:06:55;9.00;79.10
78345;DHT22;67620;51.134;6.548;2024-01-25T10:09:22;8.90;79.00
78345;DHT22;67620;51.134;6.548;2024-01-25T10:11:48;8.90;79.30
78345;DHT22;67620;51.134;6.548;2024-01-25T10:14:13;8.90;79.20
78345;DHT22;67620;51.134;6.548;2024-01-25T10:16:39;8.70;80.20
78345;DHT22;67620;51.134;6.548;2024-01-25T10:19:06;8.60;81.00
78345;DHT22;67620;51.134;6.548;2024-01-25T10:21:34;8.40;82.00
78345;DHT22;67620;51.134;6.548;2024-01-25T10:24:00;8.10;83.20
78345;DHT22;67620;51.134;6.548;2024-01-25T10:26:26;8.10;83.70
78345;DHT22;67620;51.134;6.548;2024-01-25T10:28:53;8.10;84.30
78345;DHT22;67620;51.134;6.548;2024-01-25T10:31:22;8.20;83.20
78345;DHT22;67620;51.134;6.548;2024-01-25T10:33:47;8.00;84.10
78345;DHT22;67620;51.134;6.548;2024-01-25T10:36:13;8.00;84.40
78345;DHT22;67620;51.134;6.548;2024-01-25T10:38:41;8.10;83.50
78345;DHT22;67620;51.134;6.548;2024-01-25T10:41:07;8.30;83.50
78345;DHT22;67620;51.134;6.548;2024-01-25T10:43:33;8.30;83.00
78345;DHT22;67620;51.134;6.548;2024-01-25T10:45:59;8.30;83.20
78345;DHT22;67620;51.134;6.548;2024-01-25T10:48:25;8.60;83.10
78345;DHT22;67620;51.134;6.548;2024-01-25T10:51:01;8.80;82.30
78345;DHT22;67620;51.134;6.548;2024-01-25T10:53:32;9.50;78.80
78345;DHT22;67620;51.134;6.548;2024-01-25T10:55:58;9.50;78.50
78345;DHT22;67620;51.134;6.548;2024-01-25T10:58:23;9.10;79.90
78345;DHT22;67620;51.134;6.548;2024-01-25T11:00:57;9.10;80.00
78345;DHT22;67620;51.134;6.548;2024-01-25T11:03:27;8.90;81.20
78345;DHT22;67620;51.134;6.548;2024-01-25T11:05:55;8.70;81.60
78345;DHT22;67620;51.134;6.548;2024-01-25T11:08:20;8.80;81.50
78345;DHT22;67620;51.134;6.548;2024-01-25T11:10:52;8.60;82.10
78345;DHT22;67620;51.134;6.548;2024-01-25T11:13:23;8.80;81.60
78345;DHT22;67620;51.134;6.548;2024-01-25T11:15:50;8.90;80.60
78345;DHT22;67620;51.134;6.548;2024-01-25T11:18:16;9.20;80.30
78345;DHT22;67620;51.134;6.548;2024-01-25T11:20:41;9.50;78.60
78345;DHT22;67620;51.134;6.548;2024-01-25T11:23:07;9.90;76.70
78345;DHT22;67620;51.134;6.548;2024-01-25T11:25:37;10.20;75.80
78345;DHT22;67620;51.134;6.548;2024-01-25T11:28:04;10.20;76.10
78345;DHT22;67620;51.134;6.548;2024-01-25T11:30:32;10.30;75.10
78345;DHT22;67620;51.134;6.548;2024-01-25T11:32:58;10.40;75.20
78345;DHT22;67620;51.134;6.548;2024-01-25T11:35:24;10.30;74.80
78345;DHT22;67620;51.134;6.548;2024-01-25T11:37:50;10.20;75.20
78345;DHT22;67620;51.134;6.548;2024-01-25T11:40:19;10.30;74.70
78345;DHT22;67620;51.134;6.548;2024-01-25T11:42:47;10.30;74.70
78345;DHT22;67620;51.134;6.548;2024-01-25T11:45:13;10.10;75.60
78345;DHT22;67620;51.134;6.548;2024-01-25T11:47:40;10.20;74.60
78345;DHT22;67620;51.134;6.548;2024-01-25T11:50:07;10.30;74.50
78345;DHT22;67620;51.134;6.548;2024-01-25T11:52:33;10.30;74.50
78345;DHT22;67620;51.134;6.548;2024-01-25T11:55:03;10.00;75.70
78345;DHT22;67620;51.134;6.548;2024-01-25T11:57:34;9.90;75.60
78345;DHT22;67620;51.134;6.548;2024-01-25T12:00:01;9.70;76.20
78345;DHT22;67620;51.134;6.548;2024-01-25T12:02:27;9.60;76.90
78345;DHT22;67620;51.134;6.548;2024-01-25T12:04:53;9.50;77.40
78345;DHT22;67620;51.134;6.548;2024-01-25T12:07:21;9.40;77.20
78345;DHT22;67620;51.134;6.548;2024-01-25T12:10:04;9.30;78.20
78345;DHT22;67620;51.134;6.548;2024-01-25T12:12:30;9.30;78.30
78345;DHT22;67620;51.134;6.548;2024-01-25T12:14:59;9.40;78.30
78345;DHT22;67620;51.134;6.548;2024-01-25T12:17:29;9.50;77.60
78345;DHT22;67620;51.134;6.548;2024-01-25T12:19:56;9.40;77.40
78345;DHT22;67620;51.134;6.548;2024-01-25T12:22:21;9.50;77.10
78345;DHT22;67620;51.134;6.548;2024-01-25T12:24:47;9.50;77.40
78345;DHT22;67620;51.134;6.548;2024-01-25T12:27:14;9.50;77.60
78345;DHT22;67620;51.134;6.548;2024-01-25T12:29:40;9.50;77.30
78345;DHT22;67620;51.134;6.548;2024-01-25T12:32:06;9.40;77.50
78345;DHT22;67620;51.134;6.548;2024-01-25T12:34:31;9.30;78.10
78345;DHT22;67620;51.134;6.548;2024-01-25T12:36:57;9.20;78.10
78345;DHT22;67620;51.134;6.548;2024-01-25T12:39:22;9.30;78.40
78345;DHT22;67620;51.134;6.548;2024-01-25T12:41:48;9.30;78.30
78345;DHT22;67620;51.134;6.548;2024-01-25T12:44:13;9.40;78.30
78345;DHT22;67620;51.134;6.548;2024-01-25T12:46:39;9.30;78.10
78345;DHT22;67620;51.134;6.548;2024-01-25T12:49:05;9.30;78.20
78345;DHT22;67620;51.134;6.548;2024-01-25T12:51:30;9.30;78.30
78345;DHT22;67620;51.134;6.548;2024-01-25T12:53:56;9.30;78.20
78345;DHT22;67620;51.134;6.548;2024-01-25T12:56:21;9.20;78.40
78345;DHT22;67620;51.134;6.548;2024-01-25T12:58:47;9.20;78.70
78345;DHT22;67620;51.134;6.548;2024-01-25T13:01:12;9.20;79.20
78345;DHT22;67620;51.134;6.548;2024-01-25T13:03:38;9.30;78.70
78345;DHT22;67620;51.134;6.548;2024-01-25T13:06:03;9.30;78.20
78345;DHT22;67620;51.134;6.548;2024-01-25T13:08:29;9.30;78.20
78345;DHT22;67620;51.134;6.548;2024-01-25T13:10:55;9.40;78.00
78345;DHT22;67620;51.134;6.548;2024-01-25T13:13:20;9.40;77.60
78345;DHT22;67620;51.134;6.548;2024-01-25T13:15:46;9.50;76.80
78345;DHT22;67620;51.134;6.548;2024-01-25T13:18:12;9.50;76.50
78345;DHT22;67620;51.134;6.548;2024-01-25T13:20:37;9.50;76.60
78345;DHT22;67620;51.134;6.548;2024-01-25T13:23:03;9.50;76.90
78345;DHT22;67620;51.134;6.548;2024-01-25T13:25:30;9.50;76.40
78345;DHT22;67620;51.134;6.548;2024-01-25T13:27:55;9.50;76.20
78345;DHT22;67620;51.134;6.548;2024-01-25T13:30:20;9.50;76.10
78345;DHT22;67620;51.134;6.548;2024-01-25T13:32:46;9.50;76.10
78345;DHT22;67620;51.134;6.548;2024-01-25T13:35:11;9.50;76.50
78345;DHT22;67620;51.134;6.548;2024-01-25T13:37:37;9.50;75.80
78345;DHT22;67620;51.134;6.548;2024-01-25T13:40:04;9.60;76.30
78345;DHT22;67620;51.134;6.548;2024-01-25T13:42:30;9.50;75.90
78345;DHT22;67620;51.134;6.548;2024-01-25T13:44:56;9.50;76.40
78345;DHT22;67620;51.134;6.548;2024-01-25T13:47:21;9.50;76.60
78345;DHT22;67620;51.134;6.548;2024-01-25T13:49:47;9.50;76.00
78345;DHT22;67620;51.134;6.548;2024-01-25T13:52:17;9.50;76.10
78345;DHT22;67620;51.134;6.548;2024-01-25T13:54:44;9.50;76.20
78345;DHT22;67620;51.134;6.548;2024-01-25T13:57:10;9.50;76.10
78345;DHT22;67620;51.134;6.548;2024-01-25T13:59:35;9.50;76.20
78345;DHT22;67620;51.134;6.548;2024-01-25T14:02:00;9.50;76.20
78345;DHT22;67620;51.134;6.548;2024-01-25T14:04:26;9.50;76.70
78345;DHT22;67620;51.134;6.548;2024-01-25T14:06:51;9.50;76.70
78345;DHT22;67620;51.134;6.548;2024-01-25T14:09:17;9.50;76.90
78345;DHT22;67620;51.134;6.548;2024-01-25T14:11:42;9.40;77.30
78345;DHT22;67620;51.134;6.548;2024-01-25T14:14:08;9.40;77.10
78345;DHT22;67620;51.134;6.548;2024-01-25T14:16:34;9.40;77.00
78345;DHT22;67620;51.134;6.548;2024-01-25T14:18:59;9.40;77.60
78345;DHT22;67620;51.134;6.548;2024-01-25T14:21:25;9.40;77.50
78345;DHT22;67620;51.134;6.548;2024-01-25T14:23:51;9.40;77.70
78345;DHT22;67620;51.134;6.548;2024-01-25T14:26:16;9.30;77.70
78345;DHT22;67620;51.134;6.548;2024-01-25T14:28:41;9.40;77.60
78345;DHT22;67620;51.134;6.548;2024-01-25T14:31:07;9.40;76.60
78345;DHT22;67620;51.134;6.548;2024-01-25T14:33:32;9.40;76.60
78345;DHT22;67620;51.134;6.548;2024-01-25T14:35:59;9.40;76.70
78345;DHT22;67620;51.134;6.548;2024-01-25T14:38:24;9.30;77.00
78345;DHT22;67620;51.134;6.548;2024-01-25T14:40:50;9.30;77.10
78345;DHT22;67620;51.134;6.548;2024-01-25T14:43:15;9.30;77.10
78345;DHT22;67620;51.134;6.548;2024-01-25T14:45:42;9.30;77.00
78345;DHT22;67620;51.134;6.548;2024-01-25T14:48:08;9.30;77.20
78345;DHT22;67620;51.134;6.548;2024-01-25T14:50:33;9.30;77.40
78345;DHT22;67620;51.134;6.548;2024-01-25T14:52:59;9.30;76.90
78345;DHT22;67620;51.134;6.548;2024-01-25T14:55:24;9.30;76.80
78345;DHT22;67620;51.134;6.548;2024-01-25T14:57:50;9.30;77.20
78345;DHT22;67620;51.134;6.548;2024-01-25T15:00:16;9.30;77.30
78345;DHT22;67620;51.134;6.548;2024-01-25T15:02:45;9.30;77.40
78345;DHT22;67620;51.134;6.548;2024-01-25T15:05:10;9.30;77.40
78345;DHT22;67620;51.134;6.548;2024-01-25T15:07:36;9.30;77.30
78345;DHT22;67620;51.134;6.548;2024-01-25T15:10:02;9.40;77.30
78345;DHT22;67620;51.134;6.548;2024-01-25T15:12:27;9.30;76.90
78345;DHT22;67620;51.134;6.548;2024-01-25T15:14:53;9.30;76.90
78345;DHT22;67620;51.134;6.548;2024-01-25T15:17:18;9.30;76.90
78345;DHT22;67620;51.134;6.548;2024-01-25T15:19:44;9.20;77.10
78345;DHT22;67620;51.134;6.548;2024-01-25T15:22:09;9.30;77.40
78345;DHT22;67620;51.134;6.548;2024-01-25T15:24:35;9.20;77.20
78345;DHT22;67620;51.134;6.548;2024-01-25T15:27:00;9.30;77.30
78345;DHT22;67620;51.134;6.548;2024-01-25T15:29:27;9.30;76.90
78345;DHT22;67620;51.134;6.548;2024-01-25T15:31:52;9.20;76.60
78345;DHT22;67620;51.134;6.548;2024-01-25T15:34:18;9.20;76.70
78345;DHT22;67620;51.134;6.548;2024-01-25T15:36:43;9.20;77.00